sensor_id;sensor_type;location;lat;lon;timestamp;pressure;altitude;pressure_sealevel;temperature;humidity
48882;BME280;57063;51.406;-2.402;2023-01-27T00:01:17;102126.16;;;3.29;100.00
48882;BME280;57063;51.406;-2.402;2023-01-27T00:03:53;102121.03;;;3.26;100.00
48882;BME280;57063;51.406;-2.402;2023-01-27T00:06:22;102105.72;;;3.17;100.00
48882;BME280;57063;51.406;-2.402;2023-01-27T00:08:48;102117.63;;;3.12;100.00
48882;BME280;57063;51.406;-2.402;2023-01-27T00:11:13;102106.56;;;3.08;100.00
48882;BME280;57063;51.406;-2.402;2023-01-27T00:13:57;102153.38;;;3.39;100.00
48882;BME280;57063;51.406;-2.402;2023-01-27T00:16:26;102118.50;;;3.29;100.00
48882;BME280;57063;51.406;-2.402;2023-01-27T00:18:55;102138.03;;;3.46;98.68
48882;BME280;57063;51.406;-2.402;2023-01-27T00:21:21;102121.03;;;3.32;96.07
48882;BME280;57063;51.406;-2.402;2023-01-27T00:24:05;102103.16;;;3.26;94.29
48882;BME280;57063;51.406;-2.402;2023-01-27T00:26:49;102114.25;;;3.22;92.05
48882;BME280;57063;51.406;-2.402;2023-01-27T00:29:15;102111.69;;;3.25;91.21
48882;BME280;57063;51.406;-2.402;2023-01-27T00:31:43;102104.88;;;3.24;90.01
48882;BME280;57063;51.406;-2.402;2023-01-27T00:34:27;102117.63;;;3.22;89.77
48882;BME280;57063;51.406;-2.402;2023-01-27T00:36:53;102090.41;;;2.92;90.57
48882;BME280;57063;51.406;-2.402;2023-01-27T00:39:19;102079.34;;;2.78;89.44
48882;BME280;57063;51.406;-2.402;2023-01-27T00:41:45;102090.41;;;2.83;89.05
48882;BME280;57063;51.406;-2.402;2023-01-27T00:44:11;102076.78;;;2.75;89.36
48882;BME280;57063;51.406;-2.402;2023-01-27T00:46:42;102075.94;;;2.59;89.93
48882;BME280;57063;51.406;-2.402;2023-01-27T00:49:09;102078.47;;;2.65;91.95
48882;BME280;57063;51.406;-2.402;2023-01-27T00:51:41;102080.19;;;2.66;92.53
48882;BME280;57063;51.406;-2.402;2023-01-27T00:54:07;102075.06;;;2.55;93.57
48882;BME280;57063;51.406;-2.402;2023-01-27T00:56:38;102071.66;;;2.66;94.79
48882;BME280;57063;51.406;-2.402;2023-01-27T00:59:07;102089.53;;;2.83;94.69
48882;BME280;57063;51.406;-2.402;2023-01-27T01:01:33;102074.22;;;2.64;95.81
48882;BME280;57063;51.406;-2.402;2023-01-27T01:04:05;102080.19;;;2.77;95.89
48882;BME280;57063;51.406;-2.402;2023-01-27T01:06:34;102081.91;;;2.84;95.75
48882;BME280;57063;51.406;-2.402;2023-01-27T01:09:00;102064.03;;;2.72;95.45
48882;BME280;57063;51.406;-2.402;2023-01-27T01:11:30;102105.72;;;2.89;96.34
48882;BME280;57063;51.406;-2.402;2023-01-27T01:13:58;102072.53;;;2.80;96.80
48882;BME280;57063;51.406;-2.402;2023-01-27T01:16:24;102066.59;;;2.76;97.89
48882;BME280;57063;51.406;-2.402;2023-01-27T01:18:50;102059.81;;;2.83;98.97
48882;BME280;57063;51.406;-2.402;2023-01-27T01:21:19;102062.34;;;2.86;99.04
48882;BME280;57063;51.406;-2.402;2023-01-27T01:23:45;102053.00;;;2.91;99.09
48882;BME280;57063;51.406;-2.402;2023-01-27T01:26:15;102060.66;;;3.00;99.53
48882;BME280;57063;51.406;-2.402;2023-01-27T01:28:42;102047.91;;;3.00;99.44
48882;BME280;57063;51.406;-2.402;2023-01-27T01:31:13;102051.31;;;2.96;99.37
48882;BME280;57063;51.406;-2.402;2023-01-27T01:33:39;102053.00;;;3.13;98.16
48882;BME280;57063;51.406;-2.402;2023-01-27T01:36:15;102050.44;;;3.16;98.68
48882;BME280;57063;51.406;-2.402;2023-01-27T01:38:43;102048.75;;;3.13;98.20
48882;BME280;57063;51.406;-2.402;2023-01-27T01:41:12;102071.69;;;3.30;97.78
48882;BME280;57063;51.406;-2.402;2023-01-27T01:43:39;102043.63;;;3.16;97.49
48882;BME280;57063;51.406;-2.402;2023-01-27T01:46:09;102028.34;;;3.06;97.62
48882;BME280;57063;51.406;-2.402;2023-01-27T01:48:50;102034.28;;;3.20;97.28
48882;BME280;57063;51.406;-2.402;2023-01-27T01:51:39;102054.69;;;3.32;99.46
48882;BME280;57063;51.406;-2.402;2023-01-27T01:54:14;102078.50;;;3.25;100.00
48882;BME280;57063;51.406;-2.402;2023-01-27T01:56:55;102041.97;;;2.91;100.00
48882;BME280;57063;51.406;-2.402;2023-01-27T02:02:19;102030.91;;;2.72;100.00
48882;BME280;57063;51.406;-2.402;2023-01-27T02:04:51;102031.72;;;2.48;100.00
48882;BME280;57063;51.406;-2.402;2023-01-27T02:07:24;102056.34;;;2.50;100.00
48882;BME280;57063;51.406;-2.402;2023-01-27T02:09:52;102024.84;;;2.13;100.00
48882;BME280;57063;51.406;-2.402;2023-01-27T02:12:24;102012.06;;;1.93;100.00
48882;BME280;57063;51.406;-2.402;2023-01-27T02:14:53;102029.03;;;1.99;100.00
48882;BME280;57063;51.406;-2.402;2023-01-27T02:17:56;102020.47;;;1.83;100.00
48882;BME280;57063;51.406;-2.402;2023-01-27T02:20:47;102052.78;;;1.93;100.00
48882;BME280;57063;51.406;-2.402;2023-01-27T02:26:53;102053.50;;;1.70;100.00
48882;BME280;57063;51.406;-2.402;2023-01-27T02:29:19;102020.31;;;1.50;100.00
48882;BME280;57063;51.406;-2.402;2023-01-27T02:31:46;102002.38;;;1.29;100.00
48882;BME280;57063;51.406;-2.402;2023-01-27T02:34:15;102030.47;;;1.43;100.00
48882;BME280;57063;51.406;-2.402;2023-01-27T02:36:45;102004.94;;;1.24;100.00
48882;BME280;57063;51.406;-2.402;2023-01-27T02:39:13;102021.16;;;1.42;100.00
48882;BME280;57063;51.406;-2.402;2023-01-27T02:41:42;102000.69;;;1.25;100.00
48882;BME280;57063;51.406;-2.402;2023-01-27T02:44:09;102007.38;;;1.14;100.00
48882;BME280;57063;51.406;-2.402;2023-01-27T02:46:35;102014.31;;;1.35;100.00
48882;BME280;57063;51.406;-2.402;2023-01-27T02:49:01;101997.31;;;1.31;100.00
48882;BME280;57063;51.406;-2.402;2023-01-27T02:51:27;102044.03;;;1.42;100.00
48882;BME280;57063;51.406;-2.402;2023-01-27T02:53:53;102015.06;;;1.21;100.00
48882;BME280;57063;51.406;-2.402;2023-01-27T02:56:19;101999.72;;;1.12;100.00
48882;BME280;57063;51.406;-2.402;2023-01-27T02:58:44;102011.63;;;1.13;100.00
48882;BME280;57063;51.406;-2.402;2023-01-27T03:01:10;102035.50;;;1.35;100.00
48882;BME280;57063;51.406;-2.402;2023-01-27T03:03:36;102012.59;;;1.34;100.00
48882;BME280;57063;51.406;-2.402;2023-01-27T03:06:11;101999.78;;;1.15;100.00
48882;BME280;57063;51.406;-2.402;2023-01-27T03:08:37;102004.97;;;1.34;100.00
48882;BME280;57063;51.406;-2.402;2023-01-27T03:11:03;102018.56;;;1.40;100.00
48882;BME280;57063;51.406;-2.402;2023-01-27T03:13:28;101984.53;;;1.15;100.00
48882;BME280;57063;51.406;-2.402;2023-01-27T03:15:57;101992.28;;;1.38;100.00
48882;BME280;57063;51.406;-2.402;2023-01-27T03:18:41;102002.44;;;1.38;100.00
48882;BME280;57063;51.406;-2.402;2023-01-27T03:21:12;102003.28;;;1.39;100.00
48882;BME280;57063;51.406;-2.402;2023-01-27T03:23:38;102033.94;;;1.54;100.00
48882;BME280;57063;51.406;-2.402;2023-01-27T03:26:08;102002.34;;;1.21;100.00
48882;BME280;57063;51.406;-2.402;2023-01-27T03:28:34;101979.38;;;1.09;100.00
48882;BME280;57063;51.406;-2.402;2023-01-27T03:31:07;101989.53;;;1.06;100.00
48882;BME280;57063;51.406;-2.402;2023-01-27T03:33:33;101976.88;;;1.14;100.00
48882;BME280;57063;51.406;-2.402;2023-01-27T03:36:04;101989.47;;;1.00;100.00
48882;BME280;57063;51.406;-2.402;2023-01-27T03:38:48;102004.78;;;1.06;100.00
48882;BME280;57063;51.406;-2.402;2023-01-27T03:41:32;102016.69;;;1.09;100.00
48882;BME280;57063;51.406;-2.402;2023-01-27T03:44:16;101980.84;;;0.73;100.00
48882;BME280;57063;51.406;-2.402;2023-01-27T03:47:00;101985.09;;;0.79;100.00
48882;BME280;57063;51.406;-2.402;2023-01-27T03:49:26;101967.31;;;0.79;100.00
48882;BME280;57063;51.406;-2.402;2023-01-27T03:51:52;102014.97;;;1.06;100.00
48882;BME280;57063;51.406;-2.402;2023-01-27T03:54:17;101975.78;;;0.79;100.00
48882;BME280;57063;51.406;-2.402;2023-01-27T03:56:43;102009.72;;;0.88;100.00
48882;BME280;57063;51.406;-2.402;2023-01-27T03:59:09;101971.53;;;0.74;100.00
48882;BME280;57063;51.406;-2.402;2023-01-27T04:01:35;101980.78;;;0.67;100.00
48882;BME280;57063;51.406;-2.402;2023-01-27T04:04:00;101995.16;;;0.65;100.00
48882;BME280;57063;51.406;-2.402;2023-01-27T04:06:44;101980.56;;;0.42;100.00
48882;BME280;57063;51.406;-2.402;2023-01-27T04:09:35;102003.38;;;0.38;100.00
48882;BME280;57063;51.406;-2.402;2023-01-27T04:12:03;101976.84;;;0.10;100.00
48882;BME280;57063;51.406;-2.402;2023-01-27T04:14:35;102010.78;;;0.18;100.00
48882;BME280;57063;51.406;-2.402;2023-01-27T04:17:11;102006.69;;;0.31;100.00
48882;BME280;57063;51.406;-2.402;2023-01-27T04:19:38;101992.94;;;0.12;100.00
48882;BME280;57063;51.406;-2.402;2023-01-27T04:22:04;101968.31;;;0.00;100.00
48882;BME280;57063;51.406;-2.402;2023-01-27T04:24:30;101974.38;;;0.16;100.00
48882;BME280;57063;51.406;-2.402;2023-01-27T04:26:58;101960.13;;;0.30;100.00
48882;BME280;57063;51.406;-2.402;2023-01-27T04:29:26;101986.78;;;0.77;100.00
48882;BME280;57063;51.406;-2.402;2023-01-27T04:31:52;102002.13;;;0.89;100.00
48882;BME280;57063;51.406;-2.402;2023-01-27T04:34:19;101974.97;;;0.85;100.00
48882;BME280;57063;51.406;-2.402;2023-01-27T04:36:44;101979.31;;;0.97;100.00
48882;BME280;57063;51.406;-2.402;2023-01-27T04:39:11;101973.44;;;1.07;100.00
48882;BME280;57063;51.406;-2.402;2023-01-27T04:41:37;101969.38;;;1.32;100.00
48882;BME280;57063;51.406;-2.402;2023-01-27T04:44:04;101991.50;;;1.47;100.00
48882;BME280;57063;51.406;-2.402;2023-01-27T04:46:30;101966.03;;;1.50;100.00
48882;BME280;57063;51.406;-2.402;2023-01-27T04:48:56;101974.56;;;1.58;100.00
48882;BME280;57063;51.406;-2.402;2023-01-27T04:51:21;101962.69;;;1.63;100.00
48882;BME280;57063;51.406;-2.402;2023-01-27T04:53:47;101983.16;;;1.85;100.00
48882;BME280;57063;51.406;-2.402;2023-01-27T04:56:30;101963.66;;;1.90;100.00
48882;BME280;57063;51.406;-2.402;2023-01-27T04:59:00;101971.28;;;1.90;100.00
48882;BME280;57063;51.406;-2.402;2023-01-27T05:01:27;101976.38;;;1.95;100.00
48882;BME280;57063;51.406;-2.402;2023-01-27T05:03:53;101985.78;;;2.11;100.00
48882;BME280;57063;51.406;-2.402;2023-01-27T05:06:19;101984.97;;;2.20;100.00
48882;BME280;57063;51.406;-2.402;2023-01-27T05:08:45;101969.66;;;2.10;100.00
48882;BME280;57063;51.406;-2.402;2023-01-27T05:11:11;101968.78;;;2.14;100.00
48882;BME280;57063;51.406;-2.402;2023-01-27T05:13:38;101960.31;;;2.16;100.00
48882;BME280;57063;51.406;-2.402;2023-01-27T05:18:36;101986.69;;;2.39;100.00
48882;BME280;57063;51.406;-2.402;2023-01-27T05:21:02;101973.94;;;2.25;100.00
48882;BME280;57063;51.406;-2.402;2023-01-27T05:23:28;101979.03;;;2.28;100.00
48882;BME280;57063;51.406;-2.402;2023-01-27T05:26:20;101996.88;;;2.48;100.00
48882;BME280;57063;51.406;-2.402;2023-01-27T05:28:48;101974.78;;;2.26;100.00
48882;BME280;57063;51.406;-2.402;2023-01-27T05:31:26;101984.16;;;2.39;100.00
48882;BME280;57063;51.406;-2.402;2023-01-27T05:33:53;101992.63;;;2.33;100.00
48882;BME280;57063;51.406;-2.402;2023-01-27T05:36:21;101986.66;;;2.25;100.00
48882;BME280;57063;51.406;-2.402;2023-01-27T05:38:48;101996.84;;;2.24;100.00
48882;BME280;57063;51.406;-2.402;2023-01-27T05:41:15;101993.47;;;2.25;100.00
48882;BME280;57063;51.406;-2.402;2023-01-27T05:43:42;101977.31;;;2.10;100.00
48882;BME280;57063;51.406;-2.402;2023-01-27T05:46:16;101980.69;;;2.16;100.00
48882;BME280;57063;51.406;-2.402;2023-01-27T05:48:47;101987.50;;;2.23;100.00
48882;BME280;57063;51.406;-2.402;2023-01-27T05:51:14;102013.84;;;2.34;100.00
48882;BME280;57063;51.406;-2.402;2023-01-27T05:53:41;101985.78;;;2.14;100.00
48882;BME280;57063;51.406;-2.402;2023-01-27T05:56:08;101990.03;;;2.13;100.00
48882;BME280;57063;51.406;-2.402;2023-01-27T05:58:35;102002.75;;;2.06;100.00
48882;BME280;57063;51.406;-2.402;2023-01-27T06:01:15;101998.50;;;2.00;100.00
48882;BME280;57063;51.406;-2.402;2023-01-27T06:03:41;101983.16;;;1.85;100.00
48882;BME280;57063;51.406;-2.402;2023-01-27T06:06:08;102005.28;;;2.03;100.00
48882;BME280;57063;51.406;-2.402;2023-01-27T06:08:34;101984.03;;;2.02;100.00
48882;BME280;57063;51.406;-2.402;2023-01-27T06:11:01;102001.09;;;2.16;100.00
48882;BME280;57063;51.406;-2.402;2023-01-27T06:13:26;102001.06;;;2.19;100.00
48882;BME280;57063;51.406;-2.402;2023-01-27T06:15:52;101989.19;;;2.18;100.00
48882;BME280;57063;51.406;-2.402;2023-01-27T06:18:20;101991.75;;;2.18;100.00
48882;BME280;57063;51.406;-2.402;2023-01-27T06:20:45;101999.38;;;2.18;100.00
48882;BME280;57063;51.406;-2.402;2023-01-27T06:23:13;101984.09;;;2.19;100.00
48882;BME280;57063;51.406;-2.402;2023-01-27T06:25:42;101993.47;;;2.32;100.00
48882;BME280;57063;51.406;-2.402;2023-01-27T06:28:08;102016.41;;;2.39;100.00
48882;BME280;57063;51.406;-2.402;2023-01-27T06:30:35;101985.78;;;2.22;100.00
48882;BME280;57063;51.406;-2.402;2023-01-27T06:33:02;102011.28;;;2.31;100.00
48882;BME280;57063;51.406;-2.402;2023-01-27T06:35:28;101984.09;;;2.13;100.00
48882;BME280;57063;51.406;-2.402;2023-01-27T06:37:59;101980.72;;;2.34;100.00
48882;BME280;57063;51.406;-2.402;2023-01-27T06:40:29;102015.56;;;2.50;100.00
48882;BME280;57063;51.406;-2.402;2023-01-27T06:42:55;102006.25;;;2.49;100.00
48882;BME280;57063;51.406;-2.402;2023-01-27T06:45:21;101981.59;;;2.34;100.00
48882;BME280;57063;51.406;-2.402;2023-01-27T06:48:00;101988.38;;;2.46;100.00
48882;BME280;57063;51.406;-2.402;2023-01-27T06:50:28;101999.44;;;2.48;100.00
48882;BME280;57063;51.406;-2.402;2023-01-27T06:53:02;101990.94;;;2.48;100.00
48882;BME280;57063;51.406;-2.402;2023-01-27T06:55:29;102003.66;;;2.46;100.00
48882;BME280;57063;51.406;-2.402;2023-01-27T06:57:54;101989.22;;;2.44;100.00
48882;BME280;57063;51.406;-2.402;2023-01-27T07:00:20;102024.09;;;2.65;100.00
48882;BME280;57063;51.406;-2.402;2023-01-27T07:02:46;102017.28;;;2.54;100.00
48882;BME280;57063;51.406;-2.402;2023-01-27T07:05:11;102006.25;;;2.49;100.00
48882;BME280;57063;51.406;-2.402;2023-01-27T07:07:37;101992.63;;;2.35;100.00
48882;BME280;57063;51.406;-2.402;2023-01-27T07:10:05;102022.38;;;2.51;100.00
48882;BME280;57063;51.406;-2.402;2023-01-27T07:12:31;102017.28;;;2.48;100.00
48882;BME280;57063;51.406;-2.402;2023-01-27T07:14:58;101991.78;;;2.33;100.00
48882;BME280;57063;51.406;-2.402;2023-01-27T07:17:24;102030.03;;;2.54;100.00
48882;BME280;57063;51.406;-2.402;2023-01-27T07:19:50;102002.00;;;2.39;100.00
48882;BME280;57063;51.406;-2.402;2023-01-27T07:22:15;101988.38;;;2.28;100.00
48882;BME280;57063;51.406;-2.402;2023-01-27T07:24:41;102007.91;;;2.41;100.00
48882;BME280;57063;51.406;-2.402;2023-01-27T07:27:06;102018.97;;;2.46;100.00
48882;BME280;57063;51.406;-2.402;2023-01-27T07:29:32;101996.00;;;2.31;100.00
48882;BME280;57063;51.406;-2.402;2023-01-27T07:31:57;102018.97;;;2.52;100.00
48882;BME280;57063;51.406;-2.402;2023-01-27T07:34:23;102004.50;;;2.36;100.00
48882;BME280;57063;51.406;-2.402;2023-01-27T07:36:48;102008.78;;;2.43;100.00
48882;BME280;57063;51.406;-2.402;2023-01-27T07:39:14;101995.16;;;2.29;100.00
48882;BME280;57063;51.406;-2.402;2023-01-27T07:41:39;102002.81;;;2.35;100.00
48882;BME280;57063;51.406;-2.402;2023-01-27T07:44:05;101998.56;;;2.28;100.00
48882;BME280;57063;51.406;-2.402;2023-01-27T07:46:31;102001.09;;;2.17;100.00
48882;BME280;57063;51.406;-2.402;2023-01-27T07:48:56;102006.19;;;2.31;100.00
48882;BME280;57063;51.406;-2.402;2023-01-27T07:51:22;102027.47;;;2.39;100.00
48882;BME280;57063;51.406;-2.402;2023-01-27T07:53:47;101993.44;;;2.12;100.00
48882;BME280;57063;51.406;-2.402;2023-01-27T07:56:13;101996.84;;;2.24;100.00
48882;BME280;57063;51.406;-2.402;2023-01-27T07:58:40;101996.88;;;2.34;100.00
48882;BME280;57063;51.406;-2.402;2023-01-27T08:01:10;102015.56;;;2.50;100.00
48882;BME280;57063;51.406;-2.402;2023-01-27T08:03:37;101993.47;;;2.34;100.00
48882;BME280;57063;51.406;-2.402;2023-01-27T08:06:07;101993.47;;;2.31;100.00
48882;BME280;57063;51.406;-2.402;2023-01-27T08:08:33;102008.75;;;2.34;100.00
48882;BME280;57063;51.406;-2.402;2023-01-27T08:11:05;102006.19;;;2.26;100.00
48882;BME280;57063;51.406;-2.402;2023-01-27T08:13:32;102024.94;;;2.50;100.00
48882;BME280;57063;51.406;-2.402;2023-01-27T08:15:58;102036.81;;;2.55;100.00
48882;BME280;57063;51.406;-2.402;2023-01-27T08:18:25;102014.75;;;2.51;100.00
48882;BME280;57063;51.406;-2.402;2023-01-27T08:20:52;102020.66;;;2.53;100.00
48882;BME280;57063;51.406;-2.402;2023-01-27T08:23:19;102016.44;;;2.49;100.00
48882;BME280;57063;51.406;-2.402;2023-01-27T08:25:52;102037.69;;;2.67;100.00
48882;BME280;57063;51.406;-2.402;2023-01-27T08:28:19;102027.50;;;2.62;100.00
48882;BME280;57063;51.406;-2.402;2023-01-27T08:30:45;102034.31;;;2.71;100.00
48882;BME280;57063;51.406;-2.402;2023-01-27T08:33:11;102033.44;;;2.70;100.00
48882;BME280;57063;51.406;-2.402;2023-01-27T08:35:38;102034.28;;;2.72;100.00
48882;BME280;57063;51.406;-2.402;2023-01-27T08:38:07;102042.81;;;2.76;100.00
48882;BME280;57063;51.406;-2.402;2023-01-27T08:40:33;102053.00;;;2.85;100.00
48882;BME280;57063;51.406;-2.402;2023-01-27T08:42:58;102050.44;;;2.85;100.00
48882;BME280;57063;51.406;-2.402;2023-01-27T08:45:26;102037.69;;;2.79;100.00
48882;BME280;57063;51.406;-2.402;2023-01-27T08:47:52;102078.50;;;3.04;100.00
48882;BME280;57063;51.406;-2.402;2023-01-27T08:50:18;102087.00;;;3.01;100.00
48882;BME280;57063;51.406;-2.402;2023-01-27T08:52:43;102074.25;;;2.89;100.00
48882;BME280;57063;51.406;-2.402;2023-01-27T08:55:09;102084.44;;;3.07;100.00
48882;BME280;57063;51.406;-2.402;2023-01-27T08:57:37;102090.41;;;3.17;100.00
48882;BME280;57063;51.406;-2.402;2023-01-27T09:00:05;102087.03;;;3.18;100.00
48882;BME280;57063;51.406;-2.402;2023-01-27T09:02:31;102059.81;;;3.02;100.00
48882;BME280;57063;51.406;-2.402;2023-01-27T09:04:57;102085.31;;;3.17;100.00
48882;BME280;57063;51.406;-2.402;2023-01-27T09:07:25;102063.22;;;3.13;100.00
48882;BME280;57063;51.406;-2.402;2023-01-27T09:09:50;102068.31;;;3.16;100.00
48882;BME280;57063;51.406;-2.402;2023-01-27T09:12:16;102061.50;;;3.15;100.00
48882;BME280;57063;51.406;-2.402;2023-01-27T09:14:42;102072.56;;;3.28;100.00
48882;BME280;57063;51.406;-2.402;2023-01-27T09:17:08;102068.31;;;3.25;100.00
48882;BME280;57063;51.406;-2.402;2023-01-27T09:19:33;102077.66;;;3.45;100.00
48882;BME280;57063;51.406;-2.402;2023-01-27T09:21:59;102066.59;;;3.42;100.00
48882;BME280;57063;51.406;-2.402;2023-01-27T09:24:24;102077.59;;;3.55;100.00
48882;BME280;57063;51.406;-2.402;2023-01-27T09:26:50;102087.81;;;3.60;100.00
48882;BME280;57063;51.406;-2.402;2023-01-27T09:29:16;102080.16;;;3.63;100.00
48882;BME280;57063;51.406;-2.402;2023-01-27T09:31:41;102068.25;;;3.57;100.00
48882;BME280;57063;51.406;-2.402;2023-01-27T09:34:07;102081.84;;;3.67;100.00
48882;BME280;57063;51.406;-2.402;2023-01-27T09:36:36;102110.75;;;3.84;99.68
48882;BME280;57063;51.406;-2.402;2023-01-27T09:39:06;102097.16;;;3.70;97.99
48882;BME280;57063;51.406;-2.402;2023-01-27T09:44:21;102132.00;;;3.94;97.24
48882;BME280;57063;51.406;-2.402;2023-01-27T09:53:50;102126.84;;;4.06;100.00
48882;BME280;57063;51.406;-2.402;2023-01-27T09:59:11;102151.47;;;4.29;98.28
48882;BME280;57063;51.406;-2.402;2023-01-27T10:15:05;102136.06;;;4.46;92.36
48882;BME280;57063;51.406;-2.402;2023-01-27T10:17:54;102142.94;;;4.32;89.66
48882;BME280;57063;51.406;-2.402;2023-01-27T10:20:51;102149.66;;;4.51;86.18
48882;BME280;57063;51.406;-2.402;2023-01-27T10:27:02;102142.84;;;4.56;86.42
48882;BME280;57063;51.406;-2.402;2023-01-27T10:29:46;102117.31;;;4.47;87.08
48882;BME280;57063;51.406;-2.402;2023-01-27T10:35:07;102151.41;;;4.49;84.27
48882;BME280;57063;51.406;-2.402;2023-01-27T10:43:22;102153.09;;;4.56;88.25
48882;BME280;57063;51.406;-2.402;2023-01-27T10:45:52;102149.63;;;4.63;87.10
48882;BME280;57063;51.406;-2.402;2023-01-27T10:51:18;102150.41;;;4.76;84.80
48882;BME280;57063;51.406;-2.402;2023-01-27T10:54:03;102125.72;;;4.74;84.54
48882;BME280;57063;51.406;-2.402;2023-01-27T10:56:56;102151.19;;;4.90;81.13
48882;BME280;57063;51.406;-2.402;2023-01-27T11:02:16;102110.19;;;4.97;82.43
48882;BME280;57063;51.406;-2.402;2023-01-27T11:04:55;102120.22;;;5.23;81.89
48882;BME280;57063;51.406;-2.402;2023-01-27T11:07:23;102123.59;;;5.28;81.21
48882;BME280;57063;51.406;-2.402;2023-01-27T11:10:14;102114.25;;;5.25;80.29
48882;BME280;57063;51.406;-2.402;2023-01-27T11:12:46;102118.53;;;5.22;80.57
48882;BME280;57063;51.406;-2.402;2023-01-27T11:15:34;102136.19;;;5.51;80.10
48882;BME280;57063;51.406;-2.402;2023-01-27T11:18:19;102098.13;;;5.12;79.60
48882;BME280;57063;51.406;-2.402;2023-01-27T11:21:11;102088.44;;;5.47;77.11
48882;BME280;57063;51.406;-2.402;2023-01-27T11:23:42;102095.88;;;5.71;78.48
48882;BME280;57063;51.406;-2.402;2023-01-27T11:28:55;102089.75;;;5.85;77.89
48882;BME280;57063;51.406;-2.402;2023-01-27T11:31:34;102088.00;;;5.87;78.98
48882;BME280;57063;51.406;-2.402;2023-01-27T11:34:08;102109.34;;;5.87;80.60
48882;BME280;57063;51.406;-2.402;2023-01-27T11:36:35;102088.97;;;5.78;80.78
48882;BME280;57063;51.406;-2.402;2023-01-27T11:39:00;102105.91;;;5.94;80.31
48882;BME280;57063;51.406;-2.402;2023-01-27T11:41:32;102092.97;;;6.05;80.99
48882;BME280;57063;51.406;-2.402;2023-01-27T11:44:03;102061.44;;;5.97;79.59
48882;BME280;57063;51.406;-2.402;2023-01-27T11:46:30;102084.19;;;6.25;79.24
48882;BME280;57063;51.406;-2.402;2023-01-27T11:48:58;102067.28;;;6.08;79.73
48882;BME280;57063;51.406;-2.402;2023-01-27T11:51:25;102090.84;;;6.36;79.34
48882;BME280;57063;51.406;-2.402;2023-01-27T11:54:04;102094.44;;;6.25;79.99
48882;BME280;57063;51.406;-2.402;2023-01-27T11:56:32;102057.97;;;6.03;79.94
48882;BME280;57063;51.406;-2.402;2023-01-27T11:59:16;102041.72;;;6.02;80.39
48882;BME280;57063;51.406;-2.402;2023-01-27T12:01:50;102046.94;;;5.97;80.64
48882;BME280;57063;51.406;-2.402;2023-01-27T12:07:01;102084.44;;;6.03;81.67
48882;BME280;57063;51.406;-2.402;2023-01-27T12:09:40;102050.47;;;5.86;81.05
48882;BME280;57063;51.406;-2.402;2023-01-27T12:12:25;102078.44;;;6.04;81.55
48882;BME280;57063;51.406;-2.402;2023-01-27T12:14:59;102053.03;;;5.84;81.91
48882;BME280;57063;51.406;-2.402;2023-01-27T12:17:37;102081.13;;;5.93;82.94
48882;BME280;57063;51.406;-2.402;2023-01-27T12:20:16;102044.69;;;5.67;82.74
48882;BME280;57063;51.406;-2.402;2023-01-27T12:22:53;102079.44;;;5.89;82.49
48882;BME280;57063;51.406;-2.402;2023-01-27T12:25:28;102040.41;;;5.69;82.43
48882;BME280;57063;51.406;-2.402;2023-01-27T12:27:58;102057.31;;;5.82;82.96
48882;BME280;57063;51.406;-2.402;2023-01-27T12:30:31;102067.25;;;6.11;80.88
48882;BME280;57063;51.406;-2.402;2023-01-27T12:32:59;102027.28;;;5.96;80.44
48882;BME280;57063;51.406;-2.402;2023-01-27T12:35:35;102024.50;;;6.12;79.41
48882;BME280;57063;51.406;-2.402;2023-01-27T12:38:21;102061.06;;;6.85;77.77
48882;BME280;57063;51.406;-2.402;2023-01-27T12:41:18;102064.22;;;7.02;77.51
48882;BME280;57063;51.406;-2.402;2023-01-27T12:43:52;102042.78;;;7.05;77.09
48882;BME280;57063;51.406;-2.402;2023-01-27T12:46:24;102018.09;;;6.98;76.73
48882;BME280;57063;51.406;-2.402;2023-01-27T12:49:04;102019.41;;;7.20;74.90
48882;BME280;57063;51.406;-2.402;2023-01-27T12:54:26;102031.63;;;7.98;71.95
48882;BME280;57063;51.406;-2.402;2023-01-27T12:56:52;102027.03;;;8.10;70.53
48882;BME280;57063;51.406;-2.402;2023-01-27T12:59:20;102020.06;;;8.15;69.71
48882;BME280;57063;51.406;-2.402;2023-01-27T13:02:10;101997.19;;;8.05;70.05
48882;BME280;57063;51.406;-2.402;2023-01-27T13:04:41;102015.38;;;7.54;71.85
48882;BME280;57063;51.406;-2.402;2023-01-27T13:07:13;102001.06;;;7.39;71.62
48882;BME280;57063;51.406;-2.402;2023-01-27T13:09:52;102029.00;;;7.09;73.00
48882;BME280;57063;51.406;-2.402;2023-01-27T13:12:24;102025.59;;;7.10;72.71
48882;BME280;57063;51.406;-2.402;2023-01-27T13:14:56;102014.22;;;6.72;74.47
48882;BME280;57063;51.406;-2.402;2023-01-27T13:17:36;101990.81;;;6.39;74.84
48882;BME280;57063;51.406;-2.402;2023-01-27T13:20:23;102025.56;;;6.57;74.96
48882;BME280;57063;51.406;-2.402;2023-01-27T13:23:02;101978.34;;;7.19;73.36
48882;BME280;57063;51.406;-2.402;2023-01-27T13:25:35;101987.34;;;7.83;70.40
48882;BME280;57063;51.406;-2.402;2023-01-27T13:28:04;102017.44;;;8.19;69.82
48882;BME280;57063;51.406;-2.402;2023-01-27T13:30:39;101991.44;;;7.92;69.81
48882;BME280;57063;51.406;-2.402;2023-01-27T13:38:57;101985.84;;;6.81;72.68
48882;BME280;57063;51.406;-2.402;2023-01-27T13:41:34;101994.19;;;6.94;73.92
48882;BME280;57063;51.406;-2.402;2023-01-27T13:44:07;101982.44;;;6.81;74.01
48882;BME280;57063;51.406;-2.402;2023-01-27T13:46:41;101995.41;;;6.73;75.37
48882;BME280;57063;51.406;-2.402;2023-01-27T13:51:41;102005.13;;;6.54;76.44
48882;BME280;57063;51.406;-2.402;2023-01-27T13:54:09;102006.84;;;6.52;77.00
48882;BME280;57063;51.406;-2.402;2023-01-27T14:02:22;102014.41;;;6.60;76.56
48882;BME280;57063;51.406;-2.402;2023-01-27T14:07:59;102023.13;;;6.50;77.30
48882;BME280;57063;51.406;-2.402;2023-01-27T14:10:40;101991.16;;;6.15;77.28
48882;BME280;57063;51.406;-2.402;2023-01-27T14:18:19;101991.56;;;5.81;80.28
48882;BME280;57063;51.406;-2.402;2023-01-27T14:23:58;102026.38;;;6.00;79.08
48882;BME280;57063;51.406;-2.402;2023-01-27T14:29:18;102025.50;;;6.02;80.18